createdAt,value
2019-03-11T00:01:39.703Z,8.40
2019-03-11T00:04:09.809Z,9.03
2019-03-11T00:06:38.068Z,8.13
2019-03-11T00:09:07.212Z,7.37
2019-03-11T00:11:36.474Z,7.80
2019-03-11T00:14:05.531Z,8.70
2019-03-11T00:16:34.670Z,9.60
2019-03-11T00:19:03.745Z,9.50
2019-03-11T00:21:32.825Z,9.00
2019-03-11T00:24:02.041Z,9.07
2019-03-11T00:26:31.108Z,9.13
2019-03-11T00:29:00.193Z,8.07
2019-03-11T00:31:29.411Z,7.33
2019-03-11T00:33:58.650Z,8.20
2019-03-11T00:36:27.662Z,7.67
2019-03-11T00:38:56.800Z,8.03
2019-03-11T00:41:25.780Z,7.97
2019-03-11T00:43:54.859Z,7.27
2019-03-11T00:46:24.175Z,6.93
2019-03-11T00:48:53.315Z,7.33
2019-03-11T00:51:22.387Z,7.13
2019-03-11T00:53:51.478Z,8.60
2019-03-11T00:56:21.041Z,8.37
2019-03-11T00:58:50.052Z,7.83
2019-03-11T01:01:19.188Z,6.93
2019-03-11T01:03:48.323Z,5.87
2019-03-11T01:06:17.346Z,6.27
2019-03-11T01:08:46.846Z,6.10
2019-03-11T01:11:15.905Z,5.97
2019-03-11T01:13:44.959Z,6.77
2019-03-11T01:16:14.040Z,6.77
2019-03-11T01:18:43.171Z,6.30
2019-03-11T01:21:12.242Z,6.30
2019-03-11T01:23:41.323Z,6.13
2019-03-11T01:26:10.493Z,6.23
2019-03-11T01:28:39.457Z,5.50
2019-03-11T01:31:09.036Z,6.10
2019-03-11T01:33:38.205Z,5.83
2019-03-11T01:36:07.261Z,6.17
2019-03-11T01:38:36.930Z,5.90
2019-03-11T01:41:06.077Z,6.23
2019-03-11T01:43:35.219Z,5.93
2019-03-11T01:46:04.539Z,6.77
2019-03-11T01:48:33.661Z,6.63
2019-03-11T01:51:03.033Z,6.17
2019-03-11T01:53:32.300Z,5.90
2019-03-11T01:56:01.491Z,5.72
2019-03-11T01:58:30.442Z,5.33
2019-03-11T02:00:59.513Z,5.12
2019-03-11T02:03:28.541Z,5.25
2019-03-11T02:05:57.514Z,5.62
2019-03-11T02:08:26.578Z,5.60
2019-03-11T02:10:55.537Z,6.05
2019-03-11T02:13:24.514Z,6.53
2019-03-11T02:15:53.349Z,6.17
2019-03-11T02:18:22.398Z,6.40
2019-03-11T02:20:51.492Z,5.97
2019-03-11T02:23:21.153Z,6.65
2019-03-11T02:25:50.316Z,6.83
2019-03-11T02:28:19.476Z,7.08
2019-03-11T02:30:48.499Z,5.90
2019-03-11T02:33:17.624Z,6.17
2019-03-11T02:35:46.654Z,5.92
2019-03-11T02:38:15.719Z,5.30
2019-03-11T02:40:44.779Z,5.05
2019-03-11T02:43:14.007Z,5.12
2019-03-11T02:45:43.176Z,5.92
2019-03-11T02:48:12.279Z,4.70
2019-03-11T02:50:41.441Z,5.17
2019-03-11T02:53:10.472Z,5.58
2019-03-11T02:55:39.487Z,5.40
2019-03-11T02:58:08.985Z,5.50
2019-03-11T03:00:38.142Z,6.60
2019-03-11T03:03:12.531Z,5.30
2019-03-11T03:05:47.799Z,6.17
2019-03-11T03:08:16.825Z,6.20
2019-03-11T03:10:45.985Z,5.78
2019-03-11T03:13:15.179Z,7.00
2019-03-11T03:15:44.214Z,6.75
2019-03-11T03:18:13.267Z,5.85
2019-03-11T03:20:42.362Z,7.33
2019-03-11T03:23:11.432Z,6.08
2019-03-11T03:25:40.460Z,7.00
2019-03-11T03:28:09.640Z,6.15
2019-03-11T03:30:38.687Z,7.92
2019-03-11T03:33:07.736Z,6.37
2019-03-11T03:35:36.750Z,6.22
2019-03-11T03:38:05.948Z,5.85
2019-03-11T03:40:35.146Z,6.87
2019-03-11T03:43:04.435Z,6.45
2019-03-11T03:45:36.396Z,6.10
2019-03-11T03:48:05.669Z,8.00
2019-03-11T03:50:36.909Z,5.75
2019-03-11T03:53:06.084Z,4.65
2019-03-11T03:55:35.205Z,4.50
2019-03-11T03:58:04.251Z,5.60
2019-03-11T04:00:33.397Z,5.20
2019-03-11T04:03:02.461Z,5.25
2019-03-11T04:05:31.636Z,6.45
2019-03-11T04:08:00.911Z,5.20
2019-03-11T04:10:32.454Z,4.60
2019-03-11T04:12:59.340Z,5.40
2019-03-11T04:15:28.891Z,4.80
2019-03-11T04:17:57.836Z,4.97
2019-03-11T04:20:26.990Z,5.22
2019-03-11T04:22:55.924Z,5.95
2019-03-11T04:25:25.175Z,5.65
2019-03-11T04:27:54.890Z,5.03
2019-03-11T04:30:24.346Z,5.70
2019-03-11T04:32:53.331Z,5.62
2019-03-11T04:35:22.469Z,5.33
2019-03-11T04:37:51.449Z,5.20
2019-03-11T04:40:20.537Z,5.40
2019-03-11T04:42:49.647Z,5.58
2019-03-11T04:45:18.759Z,5.40
2019-03-11T04:47:47.957Z,5.47
2019-03-11T04:50:17.080Z,5.92
2019-03-11T04:52:46.196Z,5.65
2019-03-11T04:55:15.401Z,5.75
2019-03-11T04:57:46.296Z,6.58
2019-03-11T05:00:17.548Z,6.12
2019-03-11T05:02:46.624Z,6.03
2019-03-11T05:05:15.769Z,6.45
2019-03-11T05:07:44.804Z,6.72
2019-03-11T05:10:16.047Z,5.97
2019-03-11T05:12:43.137Z,5.60
2019-03-11T05:15:12.357Z,5.85
2019-03-11T05:17:41.448Z,6.80
2019-03-11T05:20:11.052Z,6.78
2019-03-11T05:22:40.092Z,6.78
2019-03-11T05:25:09.669Z,16.85
2019-03-11T05:27:38.833Z,11.08
2019-03-11T05:30:09.800Z,9.53
2019-03-11T05:32:38.918Z,9.00
2019-03-11T05:35:08.119Z,9.35
2019-03-11T05:37:37.296Z,10.40
2019-03-11T05:40:06.410Z,16.37
2019-03-11T05:42:35.545Z,23.25
2019-03-11T05:45:04.813Z,9.00
2019-03-11T05:47:33.801Z,8.38
2019-03-11T05:50:03.003Z,8.48
2019-03-11T05:52:32.725Z,8.23
2019-03-11T05:55:01.623Z,13.72
2019-03-11T05:57:30.738Z,8.93
2019-03-11T05:59:59.829Z,8.65
2019-03-11T06:02:28.797Z,8.58
2019-03-11T06:04:57.815Z,8.75
2019-03-11T06:07:26.897Z,8.70
2019-03-11T06:09:55.975Z,36.68
2019-03-11T06:12:25.202Z,27.45
2019-03-11T06:14:54.370Z,13.85
2019-03-11T06:17:23.394Z,8.58
2019-03-11T06:19:56.612Z,8.90
2019-03-11T06:22:28.294Z,8.68
2019-03-11T06:24:57.364Z,8.67
2019-03-11T06:27:26.529Z,8.37
2019-03-11T06:29:55.646Z,8.03
2019-03-11T06:32:24.756Z,8.43
2019-03-11T06:34:53.821Z,8.27
2019-03-11T06:37:23.503Z,7.83
2019-03-11T06:39:53.118Z,8.13
2019-03-11T06:42:22.220Z,7.70
2019-03-11T06:44:51.335Z,8.17
2019-03-11T06:47:21.157Z,7.30
2019-03-11T06:49:50.219Z,12.10
2019-03-11T06:52:19.328Z,6.63
2019-03-11T06:54:48.466Z,6.40
2019-03-11T06:57:17.522Z,7.43
2019-03-11T06:59:46.593Z,6.47
2019-03-11T07:02:15.745Z,7.10
2019-03-11T07:04:44.802Z,6.40
2019-03-11T07:07:14.576Z,6.20
2019-03-11T07:09:43.702Z,7.43
2019-03-11T07:12:12.839Z,12.73
2019-03-11T07:14:41.924Z,18.90
2019-03-11T07:17:10.983Z,17.87
2019-03-11T07:19:40.091Z,17.90
2019-03-11T07:22:09.289Z,14.67
2019-03-11T07:24:38.395Z,14.13
2019-03-11T07:27:07.495Z,13.93
2019-03-11T07:29:36.718Z,14.00
2019-03-11T07:32:05.917Z,12.80
2019-03-11T07:34:34.990Z,11.80
2019-03-11T07:37:04.773Z,12.47
2019-03-11T07:39:33.808Z,11.17
2019-03-11T07:42:02.926Z,11.23
2019-03-11T07:44:32.053Z,10.83
2019-03-11T07:47:01.195Z,10.13
2019-03-11T07:49:30.494Z,8.30
2019-03-11T07:52:02.555Z,6.20
2019-03-11T07:54:35.779Z,5.07
2019-03-11T07:56:58.408Z,5.23
2019-03-11T07:59:27.477Z,4.90
2019-03-11T08:01:56.460Z,5.33
2019-03-11T08:04:25.650Z,4.77
2019-03-11T08:06:54.872Z,4.73
2019-03-11T08:09:24.178Z,4.57
2019-03-11T08:11:53.777Z,5.00
2019-03-11T08:14:22.877Z,5.50
2019-03-11T08:16:51.973Z,5.67
2019-03-11T08:19:21.119Z,4.80
2019-03-11T08:21:50.188Z,5.23
2019-03-11T08:24:19.282Z,5.40
2019-03-11T08:26:48.415Z,5.30
2019-03-11T08:29:17.514Z,4.90
2019-03-11T08:31:46.389Z,5.37
2019-03-11T08:34:15.524Z,5.63
2019-03-11T08:36:44.671Z,4.87
2019-03-11T08:39:13.803Z,4.87
2019-03-11T08:41:42.784Z,5.10
2019-03-11T08:44:12.033Z,4.73
2019-03-11T08:46:41.334Z,5.20
2019-03-11T08:49:10.474Z,4.63
2019-03-11T08:51:39.469Z,4.67
2019-03-11T08:54:08.537Z,4.27
2019-03-11T08:56:37.962Z,4.60
2019-03-11T08:59:06.819Z,5.07
2019-03-11T09:01:36.056Z,3.80
2019-03-11T09:04:05.258Z,4.30
2019-03-11T09:06:34.341Z,4.53
2019-03-11T09:09:03.685Z,4.30
2019-03-11T09:11:33.048Z,3.40
2019-03-11T09:14:02.117Z,3.87
2019-03-11T09:16:31.760Z,3.40
2019-03-11T09:19:00.816Z,3.57
2019-03-11T09:21:30.068Z,3.03
2019-03-11T09:23:59.124Z,3.27
2019-03-11T09:26:28.273Z,3.60
2019-03-11T09:28:57.324Z,3.33
2019-03-11T09:31:26.401Z,3.93
2019-03-11T09:33:55.545Z,3.77
2019-03-11T09:36:24.631Z,3.63
2019-03-11T09:38:53.697Z,3.43
2019-03-11T09:41:22.821Z,4.30
2019-03-11T09:43:51.816Z,3.67
2019-03-11T09:46:20.903Z,3.73
2019-03-11T09:48:50.029Z,3.37
2019-03-11T09:51:19.162Z,4.13
2019-03-11T09:53:48.370Z,3.93
2019-03-11T09:56:17.487Z,4.20
2019-03-11T09:58:46.660Z,3.80
2019-03-11T10:01:15.873Z,3.90
2019-03-11T10:03:45.080Z,3.80
2019-03-11T10:06:14.225Z,3.50
2019-03-11T10:08:43.375Z,3.90
2019-03-11T10:11:12.427Z,3.50
2019-03-11T10:13:41.555Z,3.70
2019-03-11T10:16:10.670Z,4.67
2019-03-11T10:18:39.953Z,3.87
2019-03-11T10:21:09.065Z,3.93
2019-03-11T10:23:38.272Z,4.37
2019-03-11T10:26:07.377Z,3.90
2019-03-11T10:28:36.491Z,4.57
2019-03-11T10:31:05.550Z,4.10
2019-03-11T10:33:34.665Z,4.20
2019-03-11T10:36:03.833Z,4.93
2019-03-11T10:38:32.918Z,3.57
2019-03-11T10:41:01.964Z,3.50
2019-03-11T10:43:31.997Z,4.00
2019-03-11T10:46:01.037Z,3.73
2019-03-11T10:48:37.133Z,3.83
2019-03-11T10:50:59.472Z,3.13
2019-03-11T10:53:28.530Z,4.10
2019-03-11T10:55:59.901Z,3.80
2019-03-11T10:58:29.044Z,4.27
2019-03-11T11:00:55.947Z,4.10
2019-03-11T11:03:25.058Z,3.63
2019-03-11T11:05:54.141Z,3.80
2019-03-11T11:08:23.211Z,3.73
2019-03-11T11:10:52.366Z,3.90
2019-03-11T11:13:22.199Z,3.60
2019-03-11T11:15:51.318Z,4.03
2019-03-11T11:18:20.456Z,3.80
2019-03-11T11:20:49.425Z,2.93
2019-03-11T11:23:18.624Z,3.00
2019-03-11T11:25:47.745Z,3.40
2019-03-11T11:28:16.806Z,3.67
2019-03-11T11:30:45.912Z,3.20
2019-03-11T11:33:15.052Z,3.23
2019-03-11T11:35:44.178Z,3.40
2019-03-11T11:38:13.316Z,3.30
2019-03-11T11:40:42.484Z,3.27
2019-03-11T11:43:11.597Z,3.30
2019-03-11T11:45:40.782Z,3.60
2019-03-11T11:48:09.843Z,3.80
2019-03-11T11:50:38.964Z,3.47
2019-03-11T11:53:08.100Z,3.67
2019-03-11T11:55:37.247Z,3.40
2019-03-11T11:58:06.277Z,3.60
2019-03-11T12:00:35.956Z,3.73
2019-03-11T12:03:05.259Z,3.40
2019-03-11T12:05:34.287Z,3.40
2019-03-11T12:08:03.370Z,2.90
2019-03-11T12:10:32.666Z,3.60
2019-03-11T12:13:01.782Z,3.53
2019-03-11T12:15:30.835Z,3.20
2019-03-11T12:17:59.931Z,3.93
2019-03-11T12:20:29.800Z,3.40
2019-03-11T12:22:58.957Z,3.83
2019-03-11T12:25:28.197Z,4.03
2019-03-11T12:27:58.307Z,3.77
2019-03-11T12:30:27.210Z,4.93
2019-03-11T12:32:56.623Z,3.47
2019-03-11T12:35:26.096Z,3.53
2019-03-11T12:37:55.388Z,3.93
2019-03-11T12:40:24.926Z,3.50
2019-03-11T12:42:54.272Z,3.33
2019-03-11T12:45:23.702Z,3.83
2019-03-11T12:47:53.013Z,4.17
2019-03-11T12:50:22.601Z,3.43
2019-03-11T12:52:51.999Z,3.50
2019-03-11T12:55:21.935Z,3.30
2019-03-11T12:57:50.722Z,3.27
2019-03-11T13:00:20.322Z,3.53
2019-03-11T13:02:49.781Z,3.00
2019-03-11T13:05:19.005Z,2.90
2019-03-11T13:07:48.532Z,3.57
2019-03-11T13:10:18.986Z,3.30
2019-03-11T13:12:48.503Z,3.47
2019-03-11T13:15:17.964Z,3.10
2019-03-11T13:17:47.421Z,3.77
2019-03-11T13:20:21.192Z,3.30
2019-03-11T13:22:51.154Z,3.90
2019-03-11T13:25:20.391Z,3.83
2019-03-11T13:27:49.814Z,3.50
2019-03-11T13:30:19.103Z,3.80
2019-03-11T13:32:48.514Z,3.90
2019-03-11T13:35:17.866Z,3.93
2019-03-11T13:37:47.218Z,3.90
2019-03-11T13:40:16.851Z,3.67
2019-03-11T13:42:46.222Z,3.57
2019-03-11T13:45:15.641Z,3.77
2019-03-11T13:47:44.978Z,5.03
2019-03-11T13:50:14.531Z,3.53
2019-03-11T13:52:43.857Z,3.50
2019-03-11T13:55:13.357Z,3.57
2019-03-11T13:57:42.654Z,3.80
2019-03-11T14:00:12.363Z,4.00
2019-03-11T14:02:41.695Z,4.97
2019-03-11T14:05:10.975Z,4.97
2019-03-11T14:07:40.246Z,4.80
2019-03-11T14:10:10.213Z,5.10
2019-03-11T14:12:39.447Z,5.40
2019-03-11T14:15:09.096Z,4.90
2019-03-11T14:17:38.503Z,5.37
2019-03-11T14:20:07.995Z,5.73
2019-03-11T14:22:37.396Z,6.97
2019-03-11T14:25:06.783Z,6.10
2019-03-11T14:27:36.106Z,6.10
2019-03-11T14:30:05.652Z,6.00
2019-03-11T14:32:34.947Z,5.93
2019-03-11T14:35:04.330Z,5.77
2019-03-11T14:37:33.507Z,5.50
2019-03-11T14:40:02.858Z,5.87
2019-03-11T14:42:32.110Z,5.80
2019-03-11T14:45:01.304Z,5.50
2019-03-11T14:47:30.554Z,5.87
2019-03-11T14:49:59.707Z,6.10
2019-03-11T14:52:29.021Z,5.47
2019-03-11T14:54:58.232Z,6.23
2019-03-11T14:57:27.438Z,6.37
2019-03-11T14:59:56.602Z,5.40
2019-03-11T15:02:25.834Z,5.83
2019-03-11T15:04:55.111Z,6.23
2019-03-11T15:07:24.413Z,6.77
2019-03-11T15:09:54.673Z,6.90
2019-03-11T15:12:23.332Z,6.40
2019-03-11T15:14:52.732Z,7.27
2019-03-11T15:17:21.994Z,6.93
2019-03-11T15:19:51.438Z,7.50
2019-03-11T15:22:22.413Z,7.97
2019-03-11T15:24:50.277Z,7.67
2019-03-11T15:27:19.541Z,8.27
2019-03-11T15:29:48.877Z,8.45
2019-03-11T15:32:18.199Z,7.80
2019-03-11T15:34:47.448Z,8.10
2019-03-11T15:37:16.895Z,7.47
2019-03-11T15:39:46.285Z,7.22
2019-03-11T15:42:15.424Z,7.28
2019-03-11T15:44:44.637Z,6.90
2019-03-11T15:47:13.997Z,6.28
2019-03-11T15:49:43.142Z,6.75
2019-03-11T15:52:12.472Z,7.60
2019-03-11T15:54:41.760Z,8.10
2019-03-11T15:57:11.030Z,7.33
2019-03-11T15:59:40.345Z,8.65
2019-03-11T16:02:09.609Z,8.33
2019-03-11T16:04:38.858Z,7.87
2019-03-11T16:07:08.154Z,8.68
2019-03-11T16:09:37.499Z,8.35
2019-03-11T16:12:06.898Z,14.05
2019-03-11T16:14:36.159Z,304.25
2019-03-11T16:17:06.467Z,39.60
2019-03-11T16:19:35.899Z,28.52
2019-03-11T16:22:05.192Z,79.35
2019-03-11T16:24:34.664Z,629.43
2019-03-11T16:27:03.872Z,60.17
2019-03-11T16:29:39.710Z,549.97
2019-03-11T16:32:08.858Z,233.43
2019-03-11T16:34:38.046Z,337.77
2019-03-11T16:37:07.375Z,839.63
2019-03-11T16:39:36.541Z,916.27
2019-03-11T16:42:05.825Z,676.53
2019-03-11T16:44:35.142Z,552.43
2019-03-11T16:47:04.458Z,75.60
2019-03-11T16:49:33.857Z,7.03
2019-03-11T16:52:03.135Z,6.37
2019-03-11T16:54:32.546Z,6.77
2019-03-11T16:57:01.895Z,7.50
2019-03-11T16:59:31.162Z,6.90
2019-03-11T17:02:00.490Z,7.10
2019-03-11T17:04:29.874Z,20.72
2019-03-11T17:06:59.161Z,21.27
2019-03-11T17:09:28.465Z,6.55
2019-03-11T17:11:58.886Z,5.67
2019-03-11T17:14:28.220Z,6.17
2019-03-11T17:16:57.485Z,7.08
2019-03-11T17:19:26.823Z,6.22
2019-03-11T17:21:56.076Z,7.17
2019-03-11T17:24:24.992Z,7.22
2019-03-11T17:26:54.273Z,7.40
2019-03-11T17:29:23.481Z,7.45
2019-03-11T17:31:52.681Z,6.85
2019-03-11T17:34:21.809Z,6.53
2019-03-11T17:36:50.772Z,7.03
2019-03-11T17:39:20.380Z,6.53
2019-03-11T17:41:49.936Z,5.97
2019-03-11T17:44:18.880Z,6.85
2019-03-11T17:46:48.090Z,5.80
2019-03-11T17:49:17.817Z,6.65
2019-03-11T17:51:47.517Z,5.67
2019-03-11T17:54:16.797Z,9.70
2019-03-11T17:56:47.172Z,5.83
2019-03-11T17:59:16.357Z,7.83
2019-03-11T18:01:45.745Z,6.40
2019-03-11T18:04:14.653Z,6.55
2019-03-11T18:06:43.706Z,5.45
2019-03-11T18:09:12.920Z,5.58
2019-03-11T18:11:42.278Z,6.42
2019-03-11T18:14:11.733Z,244.57
2019-03-11T18:16:40.889Z,38.10
2019-03-11T18:19:09.848Z,6.58
2019-03-11T18:21:39.030Z,6.33
2019-03-11T18:24:08.545Z,6.30
2019-03-11T18:26:39.492Z,6.22
2019-03-11T18:29:09.108Z,5.90
2019-03-11T18:31:38.451Z,6.08
2019-03-11T18:34:07.613Z,5.78
2019-03-11T18:36:37.281Z,5.90
2019-03-11T18:39:08.103Z,5.83
2019-03-11T18:41:38.254Z,4.92
2019-03-11T18:44:08.055Z,5.70
2019-03-11T18:46:37.645Z,5.55
2019-03-11T18:49:06.761Z,5.33
2019-03-11T18:51:36.042Z,4.35
2019-03-11T18:54:05.791Z,4.85
2019-03-11T18:56:34.757Z,17.23
2019-03-11T18:59:03.969Z,13.30
2019-03-11T19:01:33.381Z,6.83
2019-03-11T19:04:03.603Z,4.92
2019-03-11T19:06:32.891Z,4.80
2019-03-11T19:09:02.434Z,5.20
2019-03-11T19:11:31.699Z,4.90
2019-03-11T19:14:01.181Z,4.67
2019-03-11T19:16:30.732Z,5.28
2019-03-11T19:18:59.736Z,4.55
2019-03-11T19:21:29.875Z,5.80
2019-03-11T19:23:59.162Z,5.60
2019-03-11T19:26:28.842Z,5.53
2019-03-11T19:28:57.945Z,5.75
2019-03-11T19:31:28.259Z,6.72
2019-03-11T19:33:57.359Z,6.40
2019-03-11T19:36:27.132Z,6.10
2019-03-11T19:38:57.050Z,5.30
2019-03-11T19:41:26.711Z,5.28
2019-03-11T19:43:56.397Z,5.42
2019-03-11T19:46:25.618Z,5.20
2019-03-11T19:48:54.484Z,4.97
2019-03-11T19:51:23.529Z,4.72
2019-03-11T19:53:54.596Z,4.22
2019-03-11T19:56:21.681Z,4.78
2019-03-11T19:58:51.129Z,4.87
2019-03-11T20:01:20.403Z,4.92
2019-03-11T20:03:49.577Z,4.83
2019-03-11T20:06:19.356Z,4.70
2019-03-11T20:08:49.564Z,5.15
2019-03-11T20:11:19.490Z,5.03
2019-03-11T20:13:48.459Z,5.65
2019-03-11T20:16:17.458Z,5.45
2019-03-11T20:18:46.637Z,4.78
2019-03-11T20:21:15.985Z,5.47
2019-03-11T20:23:44.902Z,5.72
2019-03-11T20:26:13.975Z,5.67
2019-03-11T20:28:44.064Z,5.92
2019-03-11T20:31:13.480Z,6.65
2019-03-11T20:33:42.436Z,6.28
2019-03-11T20:36:20.831Z,6.17
2019-03-11T20:38:42.874Z,6.50
2019-03-11T20:41:09.982Z,5.75
2019-03-11T20:43:39.524Z,5.90
2019-03-11T20:46:09.259Z,6.22
2019-03-11T20:48:38.544Z,18.45
2019-03-11T20:51:07.822Z,6.45
2019-03-11T20:53:36.809Z,6.83
2019-03-11T20:56:06.050Z,8.95
2019-03-11T20:58:35.053Z,5.30
2019-03-11T21:01:04.213Z,5.25
2019-03-11T21:03:33.791Z,5.67
2019-03-11T21:06:03.352Z,5.58
2019-03-11T21:08:32.568Z,5.35
2019-03-11T21:11:01.627Z,6.35
2019-03-11T21:13:30.937Z,6.05
2019-03-11T21:16:00.407Z,6.20
2019-03-11T21:18:29.525Z,6.80
2019-03-11T21:21:04.895Z,7.03
2019-03-11T21:23:28.433Z,6.17
2019-03-11T21:25:57.544Z,6.15
2019-03-11T21:28:26.694Z,6.47
2019-03-11T21:30:56.762Z,6.20
2019-03-11T21:33:26.589Z,6.72
2019-03-11T21:35:55.947Z,6.22
2019-03-11T21:38:25.160Z,6.05
2019-03-11T21:40:55.453Z,67.75
2019-03-11T21:43:24.599Z,7.97
2019-03-11T21:45:53.647Z,23.00
2019-03-11T21:48:22.595Z,9.23
2019-03-11T21:50:51.492Z,6.42
2019-03-11T21:53:20.559Z,8.43
2019-03-11T21:55:49.588Z,8.28
2019-03-11T21:58:19.169Z,5.95
2019-03-11T22:00:48.399Z,5.85
2019-03-11T22:03:17.503Z,5.95
2019-03-11T22:05:46.722Z,6.60
2019-03-11T22:08:16.316Z,6.08
2019-03-11T22:10:46.426Z,7.47
2019-03-11T22:13:15.593Z,9.23
2019-03-11T22:15:44.688Z,6.00
2019-03-11T22:18:14.092Z,6.28
2019-03-11T22:20:43.164Z,5.90
2019-03-11T22:23:12.294Z,5.12
2019-03-11T22:25:41.917Z,6.03
2019-03-11T22:28:11.052Z,6.42
2019-03-11T22:30:39.984Z,5.08
2019-03-11T22:33:09.293Z,5.47
2019-03-11T22:35:38.505Z,69.75
2019-03-11T22:38:07.482Z,105.40
2019-03-11T22:40:36.785Z,5.55
2019-03-11T22:43:07.024Z,8.28
2019-03-11T22:45:35.981Z,4.80
2019-03-11T22:48:04.882Z,5.15
2019-03-11T22:50:34.534Z,4.78
2019-03-11T22:53:04.540Z,4.80
2019-03-11T22:55:33.471Z,4.58
2019-03-11T22:58:02.644Z,4.12
2019-03-11T23:03:53.768Z,7.00
2019-03-11T23:06:22.809Z,6.08
2019-03-11T23:08:51.833Z,6.53
2019-03-11T23:11:21.053Z,5.58
2019-03-11T23:13:50.173Z,6.12
2019-03-11T23:16:19.398Z,4.12
2019-03-11T23:18:48.519Z,5.90
2019-03-11T23:21:17.618Z,9.58
2019-03-11T23:23:47.208Z,4.67
2019-03-11T23:26:16.040Z,4.90
2019-03-11T23:28:45.233Z,5.05
2019-03-11T23:31:14.335Z,6.97
2019-03-11T23:33:43.345Z,11.38
2019-03-11T23:36:13.296Z,4.00
2019-03-11T23:38:42.220Z,4.08
2019-03-11T23:41:11.300Z,4.22
2019-03-11T23:43:40.517Z,5.03
2019-03-11T23:46:10.536Z,5.00
2019-03-11T23:48:39.965Z,6.53
2019-03-11T23:51:08.710Z,5.47
2019-03-11T23:53:37.453Z,4.28
2019-03-11T23:56:06.728Z,3.72
2019-03-11T23:58:35.807Z,3.50
